Flight Track Log - Related Links

Times and Time Zones

All times are in EDT time to prevent confusion due to time zone crossing. See the EJA941 flight status page for this flight to view local times or setup timezone preferences in your user account.

Time Position Orientation Groundspeed Altitude Reporting Facility
EDT Latitude Longitude Course Direction KTS MPH feet Rate Location/Type
Sun 03:02:51 PM 36.0761 -115.1683 269° West 157 181 3,100  Level Los Angeles Center
Sun 03:03:52 PM 36.0750 -115.2431 269° West 211 243 6,000 2,754 Climbing Los Angeles Center
Sun 03:04:53 PM 36.1283 -115.3000 319° Northwest 297 342 8,700 3,197 Climbing Los Angeles Center
Sun 03:05:54 PM 36.1878 -115.2247 46° Northeast 312 359 12,500 2,628 Climbing Los Angeles Center
Sun 03:06:54 PM 36.1983 -115.1039 84° East 359 413 14,000 1,424 Climbing Los Angeles Center
Sun 03:08:13 PM 36.1983 -114.9294 90° East 385 443 15,800 1,617 Climbing Los Angeles Center
Sun 03:09:15 PM 36.1989 -114.7972 90° East 386 444 17,800 1,742 Climbing Los Angeles Center
Sun 03:10:17 PM 36.1975 -114.6636 91° East 387 445 19,400 1,597 Climbing Los Angeles Center
Sun 03:11:19 PM 36.1953 -114.5250 91° East 401 461 21,100 1,680 Climbing Los Angeles Center
Sun 03:12:22 PM 36.1942 -114.3847 91° East 406 467 22,900 1,776 Climbing Los Angeles Center
Sun 03:13:24 PM 36.1925 -114.2414 91° East 415 478 24,800 1,790 Climbing Los Angeles Center
Sun 03:14:26 PM 36.2139 -114.0636 81° East 434 499 26,600 1,548 Climbing Los Angeles Center
Sun 03:15:28 PM 36.2306 -113.9117 82° East 444 511 28,000 1,306 Climbing Los Angeles Center
Sun 03:16:30 PM 36.2511 -113.7542 81° East 457 526 29,300 1,355 Climbing Los Angeles Center
Sun 03:17:32 PM 36.2703 -113.5928 82° East 469 540 30,800 1,403 Climbing Los Angeles Center
Sun 03:18:34 PM 36.2875 -113.4292 83° East 477 549 32,200 1,258 Climbing Los Angeles Center
Sun 03:19:36 PM 36.3078 -113.2597 82° East 489 563 33,400 1,597 Climbing Los Angeles Center
Sun 03:20:38 PM 36.3694 -113.0667 68° East 505 581 35,500 1,680 Climbing Los Angeles Center
Sun 03:21:41 PM 36.4275 -112.9100 65° Northeast 502 578 36,900 1,632 Climbing Los Angeles Center
Sun 03:22:43 PM 36.4892 -112.7544 64° Northeast 504 580 38,900 1,258 Climbing Los Angeles Center
Sun 03:23:45 PM 36.5644 -112.6106 57° Northeast 502 578 39,500 629 Climbing Los Angeles Center
Sun 03:24:47 PM 36.6422 -112.4608 57° Northeast 514 592 40,200 726 Climbing Los Angeles Center
Sun 03:25:49 PM 36.7192 -112.2661 64° Northeast 524 603 41,000 387 Climbing Los Angeles Center
Sun 03:26:51 PM 36.7783 -112.0983 66° East 532 612 41,000  Level Los Angeles Center
Sun 03:27:53 PM 36.8383 -111.9236 67° East 547 629 41,000  Level Los Angeles Center
Sun 03:28:55 PM 36.8983 -111.7461 67° East 556 640 41,000  Level Los Angeles Center
Sun 03:29:57 PM 36.9583 -111.5664 67° East 563 648 41,000  Level Los Angeles Center
Sun 03:30:34 PM 36.9967 -111.4581 66° East 566 651 41,000  Level Denver Center
Sun 03:31:36 PM 37.0661 -111.2433 68° East 562 647 41,000  Level Denver Center
Sun 03:32:38 PM 37.1269 -111.0622 67° East 564 649 41,000  Level Denver Center
Sun 03:33:40 PM 37.1875 -110.8808 67° East 566 651 41,000  Level Denver Center
Sun 03:34:42 PM 37.2464 -110.6994 68° East 565 650 41,000  Level Denver Center
Sun 03:35:44 PM 37.3058 -110.5181 68° East 565 650 41,000  Level Denver Center
Sun 03:36:46 PM 37.3767 -110.3000 68° East 564 649 41,000  Level Denver Center
Sun 03:37:48 PM 37.4344 -110.1206 68° East 566 651 41,000  Level Denver Center
Sun 03:38:51 PM 37.4906 -109.9442 68° East 566 651 41,000  Level Denver Center
Sun 03:39:53 PM 37.5567 -109.7364 68° East 570 656 41,000  Level Denver Center
Sun 03:40:55 PM 37.6136 -109.5569 68° East 573 659 41,000  Level Denver Center
Sun 03:41:57 PM 37.6789 -109.3492 68° East 570 656 41,000  Level Denver Center
Sun 03:42:59 PM 37.7350 -109.1681 69° East 573 659 41,000  Level Denver Center
Sun 03:44:01 PM 37.7992 -108.9614 68° East 567 652 41,000  Level Denver Center
Sun 03:45:03 PM 37.8594 -108.7853 67° East 569 655 41,000  Level Denver Center
Sun 03:46:05 PM 37.9317 -108.5792 66° East 572 658 41,000  Level Denver Center
Sun 03:47:07 PM 37.9919 -108.4056 66° East 565 650 41,000  Level Denver Center
Sun 03:48:09 PM 38.0511 -108.2297 67° East 565 650 41,000  Level Denver Center
Sun 03:49:11 PM 38.1172 -108.0367 66° East 566 651 41,000  Level Denver Center
Sun 03:50:12 PM 38.1864 -107.8319 67° East 566 651 41,000  Level Denver Center
Sun 03:51:14 PM 38.2456 -107.6575 67° East 565 650 41,000  Level Denver Center
Sun 03:52:16 PM 38.3150 -107.4522 67° East 565 650 41,000  Level Denver Center
Sun 03:53:18 PM 38.3739 -107.2756 67° East 567 652 41,000  Level Denver Center
Sun 03:54:20 PM 38.4297 -107.1072 67° East 569 655 41,000  Level Denver Center
Sun 03:55:22 PM 38.4839 -106.8769 73° East 566 651 41,000  Level Denver Center
Sun 03:56:24 PM 38.5222 -106.6839 76° East 565 650 41,000  Level Denver Center
Sun 03:57:26 PM 38.5594 -106.4908 76° East 564 649 41,000  Level Denver Center
Sun 03:58:28 PM 38.5964 -106.2978 76° East 562 647 41,000  Level Denver Center
Sun 03:59:30 PM 38.6358 -106.1014 76° East 568 654 41,000  Level Denver Center
Sun 04:00:32 PM 38.6781 -105.8675 77° East 565 650 41,000  Level Denver Center
Sun 04:01:33 PM 38.7161 -105.6731 76° East 566 651 41,000  Level Denver Center
Sun 04:02:35 PM 38.7514 -105.4783 77° East 564 649 41,000  Level Denver Center
Sun 04:03:37 PM 38.7883 -105.2844 76° East 564 649 41,000  Level Denver Center
Sun 04:04:39 PM 38.8239 -105.0864 77° East 572 658 41,000  Level Denver Center
Sun 04:05:41 PM 38.8600 -104.8906 77° East 568 654 41,000  Level Denver Center
Sun 04:06:43 PM 38.9022 -104.6578 77° East 565 650 41,000  Level Denver Center
Sun 04:07:44 PM 38.9358 -104.4633 77° East 564 649 41,000  Level Denver Center
Sun 04:08:46 PM 38.9697 -104.2697 77° East 562 647 41,000  Level Denver Center
Sun 04:09:48 PM 39.0033 -104.0731 78° East 566 651 41,000  Level Denver Center
Sun 04:10:50 PM 39.0375 -103.8769 77° East 568 654 41,000  Level Denver Center
Sun 04:11:52 PM 39.0775 -103.6422 78° East 563 648 41,000  Level Denver Center
Sun 04:12:54 PM 39.1103 -103.4453 78° East 565 650 41,000  Level Denver Center
Sun 04:13:55 PM 39.1431 -103.2489 78° East 565 650 41,000  Level Denver Center
Sun 04:14:57 PM 39.1756 -103.0514 78° East 568 654 41,000  Level Denver Center
Sun 04:15:59 PM 39.2083 -102.8536 78° East 568 654 41,000  Level Denver Center
Sun 04:17:01 PM 39.2433 -102.6228 79° East 569 655 41,000  Level Denver Center
Sun 04:18:02 PM 39.2750 -102.4311 78° East 570 656 41,000  Level Denver Center
Sun 04:19:04 PM 39.3042 -102.2400 79° East 568 654 41,000  Level Denver Center
Sun 04:20:06 PM 39.3378 -102.0225 79° East 568 654 41,000  Level Denver Center
Sun 04:21:08 PM 39.3717 -101.8011 79° East 564 649 41,000  Level Denver Center
Sun 04:22:10 PM 39.4011 -101.6119 79° East 564 649 41,000  Level Denver Center
Sun 04:23:11 PM 39.4336 -101.4244 77° East 560 644 41,000  Level Denver Center
Sun 04:24:13 PM 39.4708 -101.2081 77° East 555 639 41,000  Level Denver Center
Sun 04:25:15 PM 39.5017 -101.0250 78° East 549 632 41,000  Level Denver Center
Sun 04:26:17 PM 39.5375 -100.8094 78° East 549 632 41,000  Level Denver Center
Sun 04:27:18 PM 39.5678 -100.6256 78° East 548 631 41,000  Level Denver Center
Sun 04:28:20 PM 39.6017 -100.4106 78° East 547 629 41,000  Level Denver Center
Sun 04:29:22 PM 39.6319 -100.2269 78° East 546 628 41,000  Level Denver Center
Sun 04:30:24 PM 39.6661 -100.0133 78° East 544 626 41,000  Level Denver Center
Sun 04:31:26 PM 39.6961 -99.8219 78° East 540 621 41,000  Level Denver Center
Sun 04:32:28 PM 39.7253 -99.6306 79° East 540 621 41,000  Level Denver Center
Sun 04:33:29 PM 39.7544 -99.4375 79° East 544 626 41,000  Level Denver Center
Sun 04:34:31 PM 39.7831 -99.2478 79° East 539 620 41,000  Level Denver Center
Sun 04:35:33 PM 39.8119 -99.0578 79° East 538 619 41,000  Level Denver Center
Sun 04:36:31 PM 39.8406 -98.8711 79° East 534 615 41,000  Level Minneapolis Center
Sun 04:37:33 PM 39.8678 -98.6792 79° East 538 619 41,000  Level Minneapolis Center
Sun 04:38:48 PM 39.9058 -98.4142 79° East 536 617 41,000  Level Minneapolis Center
Sun 04:39:50 PM 39.9319 -98.2261 80° East 532 612 41,000  Level Minneapolis Center
Sun 04:40:52 PM 39.9594 -98.0392 79° East 529 609 41,000  Level Minneapolis Center
Sun 04:41:54 PM 39.9842 -97.8514 80° East 528 608 41,000  Level Minneapolis Center
Sun 04:42:56 PM 40.0100 -97.6633 80° East 529 609 41,000  Level Minneapolis Center
Sun 04:43:58 PM 40.0411 -97.4394 80° East 526 605 41,000 48 Level Minneapolis Center
Sun 04:45:00 PM 40.0622 -97.2728 81° East 524 603 41,100 532 Climbing Minneapolis Center
Sun 04:46:02 PM 40.0864 -97.0889 80° East 519 597 42,100 838 Climbing Minneapolis Center
Sun 04:47:16 PM 40.1150 -96.8744 80° East 507 583 43,000 394 Climbing Minneapolis Center
Sun 04:48:19 PM 40.1433 -96.6539 80° East 513 590 43,000  Level Minneapolis Center
Sun 04:49:21 PM 40.1661 -96.4650 81° East 522 601 43,000 97 Level Minneapolis Center
Sun 04:50:23 PM 40.1900 -96.2781 80° East 525 604 43,200 484 Climbing Minneapolis Center
Sun 04:51:25 PM 40.2194 -96.0942 78° East 521 600 44,000 532 Climbing Minneapolis Center
Sun 04:52:27 PM 40.2539 -95.9078 76° East 525 604 44,300 290 Climbing Minneapolis Center
Sun 04:53:29 PM 40.2961 -95.6836 76° East 529 609 44,600 290 Climbing Minneapolis Center
Sun 04:54:31 PM 40.3308 -95.4950 76° East 532 612 44,900 194 Climbing Minneapolis Center
Sun 04:55:33 PM 40.3644 -95.3075 77° East 532 612 45,000 48 Climbing Minneapolis Center
Sun 04:56:35 PM 40.3983 -95.1175 77° East 535 616 45,000  Level Minneapolis Center
Sun 04:57:37 PM 40.4333 -94.9269 76° East 537 618 45,000  Level Minneapolis Center
Sun 04:58:39 PM 40.4728 -94.7008 77° East 534 615 45,000  Level Minneapolis Center
Sun 04:59:44 PM 40.5033 -94.5164 78° East 534 615 45,000  Level Minneapolis Center
Sun 05:00:46 PM 40.5361 -94.3275 77° East 535 616 45,000  Level Minneapolis Center
Sun 05:01:48 PM 40.5678 -94.1389 77° East 534 615 45,000  Level Minneapolis Center
Sun 05:02:50 PM 40.6047 -93.9108 78° East 534 615 45,000  Level Minneapolis Center
Sun 05:03:52 PM 40.6328 -93.7194 79° East 536 617 45,000  Level Minneapolis Center
Sun 05:04:40 PM 40.6547 -93.5669 79° East 532 612 45,000  Level Chicago Center
Sun 05:05:42 PM 40.6817 -93.3814 79° East 519 597 45,000  Level Chicago Center
Sun 05:06:44 PM 40.7083 -93.1992 79° East 510 587 45,000  Level Chicago Center
Sun 05:07:47 PM 40.7325 -93.0239 80° East 493 567 45,000  Level Chicago Center
Sun 05:08:49 PM 40.7578 -92.8475 79° East 489 563 45,000 -97 Level Chicago Center
Sun 05:09:51 PM 40.7869 -92.6328 80° East 495 570 44,800 -726 Descending Chicago Center
Sun 05:10:53 PM 40.8103 -92.4567 80° East 489 563 43,500 -1,452 Descending Chicago Center
Sun 05:11:55 PM 40.8342 -92.2828 80° East 484 557 41,800 -1,597 Descending Chicago Center
Sun 05:12:57 PM 40.8575 -92.1069 80° East 487 560 40,200 -1,452 Descending Chicago Center
Sun 05:13:59 PM 40.8797 -91.9322 80° East 484 557 38,800 -1,645 Descending Chicago Center
Sun 05:15:01 PM 40.9092 -91.7158 80° East 496 571 36,800 -2,081 Descending Chicago Center
Sun 05:16:03 PM 40.9300 -91.5375 81° East 497 572 34,500 -2,274 Descending Chicago Center
Sun 05:17:05 PM 40.9517 -91.3697 80° East 476 548 32,100 -1,694 Descending Chicago Center
Sun 05:18:07 PM 40.9733 -91.2031 80° East 458 527 31,000 -581 Descending Chicago Center
Sun 05:19:09 PM 40.9817 -91.0381 86° East 451 519 30,900 -864 Descending Chicago Center
Sun 05:20:12 PM 40.9728 -90.8642 94° East 471 542 29,200 -1,824 Descending Chicago Center
Sun 05:21:14 PM 40.9633 -90.6822 94° East 493 567 27,100 -2,758 Descending Chicago Center
Sun 05:22:16 PM 40.9514 -90.4728 94° East 477 549 23,500 -3,435 Descending Chicago Center
Sun 05:23:18 PM 40.9406 -90.3078 95° East 456 525 20,000 -3,581 Descending Chicago Center
Sun 05:24:20 PM 40.9286 -90.1494 96° East 444 511 16,100 -3,339 Descending Chicago Center
Sun 05:25:22 PM 40.9189 -89.9886 95° East 426 490 13,100 -2,129 Descending Chicago Center
Sun 05:26:24 PM 40.9108 -89.8489 94° East 380 437 11,700 -968 Descending Chicago Center
Sun 05:27:26 PM 40.9033 -89.7136 94° East 365 420 11,100 -339 Descending Chicago Center
Sun 05:28:28 PM 40.8972 -89.5872 94° East 345 397 11,000  Descending Chicago Center
Sun 05:29:30 PM 40.8975 -89.4561 90° East 354 407 11,100 48 Climbing Chicago Center
Sun 05:30:32 PM 40.9300 -89.3036 74° East 360 414 11,100 -242 Level Chicago Center
Sun 05:31:34 PM 40.9614 -89.1772 72° East 361 415 10,600 -581 Descending Chicago Center
Sun 05:32:36 PM 41.0178 -89.0650 56° Northeast 353 406 9,900 -532 Descending Chicago Center
Sun 05:33:38 PM 41.0742 -88.9872 46° Northeast 302 348 9,500 -484 Descending Chicago Center
Sun 05:34:40 PM 41.1344 -88.9061 45° Northeast 309 356 8,900 -532 Descending Chicago Center
Sun 05:35:42 PM 41.1908 -88.8264 47° Northeast 302 348 8,400 -484 Descending Chicago Center
Sun 05:36:44 PM 41.2281 -88.7400 60° Northeast 284 327 7,900 -823 Descending Chicago Center
Sun 05:37:46 PM 41.2281 -88.6233 90° East 267 307 6,700 -871 Descending Chicago Center
Sun 05:38:48 PM 41.2286 -88.5308 90° East 257 296 6,100 -339 Descending Chicago Center
Sun 05:39:50 PM 41.2131 -88.4536 105° East 249 287 6,000 -48 Descending Chicago Center
Sun 05:40:52 PM 41.1511 -88.4547 181° South 240 276 6,000 48 Level Chicago Center
Sun 05:41:54 PM 41.1300 -88.5156 245° Southwest 223 257 6,100 48 Climbing Chicago Center
Sun 05:42:56 PM 41.2033 -88.5142 North 239 275 6,100 -48 Level Chicago Center
Sun 05:43:58 PM 41.2644 -88.4733 27° Northeast 244 281 6,000 -48 Descending Chicago Center
Sun 05:45:00 PM 41.3358 -88.4297 25° Northeast 273 314 6,000  Level Chicago Center
Sun 05:46:02 PM 41.4108 -88.3897 22° Northeast 285 328 6,000  Level Chicago Center
Sun 05:47:04 PM 41.4750 -88.3339 33° Northeast 282 325 6,000  Level Chicago Center
Sun 05:48:06 PM 41.4994 -88.2319 72° East 283 326 6,000  Level Chicago Center
Sun 05:49:08 PM 41.5244 -88.1308 72° East 284 327 6,000 -484 Level Chicago Center
Sun 05:50:10 PM 41.5550 -88.0075 72° East 288 331 5,000 -484 Descending Chicago Center
Sun 05:51:12 PM 41.5719 -87.9050 78° East 284 327 5,000  Level Chicago Center
Sun 05:52:14 PM 41.5744 -87.8022 88° East 280 322 5,000 -242 Level Chicago Center
Sun 05:53:16 PM 41.5794 -87.7100 86° East 265 305 4,500 -488 Descending Chicago Center
Sun 05:54:17 PM 41.5981 -87.6331 72° East 248 285 4,000 -244 Descending Chicago Center
Sun 05:55:19 PM 41.6464 -87.5997 27° Northeast 233 268 4,000 -629 Level Chicago Center
Sun 05:56:21 PM 41.7039 -87.6358 335° Northwest 206 237 2,700 -968 Descending Chicago Center
Sun 05:57:23 PM 41.7361 -87.6833 312° West 188 216 2,000 -484 Descending Chicago Center
Sun 05:58:25 PM 41.7739 -87.7100 332° Northwest 175 201 1,700 -145 Descending Chicago Center
Sun 05:59:27 PM 41.8128 -87.6914 20° North 173 199 1,700 -339 Level Chicago Center
Sun 06:00:29 PM 41.8022 -87.7308 250° West 147 169 1,000 -677 Descending Chicago Center

Login

Don't have an account? Register now (free) for customized features, flight alerts, and more!